This is the latest recevied weather packets stored in our database for station/object DG3RAP-11. If no packets are shown the sender has not sent any weather packets the latest 10 day(s).
| Time | Temp. | Humidity | Pressure | Rain* | Wind** | Luminosity | Snow |
|---|---|---|---|---|---|---|---|
| 1777669743 | 13.89° C | 51% | 1024.6 hPa | 0 mm | - | - | - |
| 1777669203 | 14.44° C | 49% | 1024.8 hPa | 0 mm | - | - | - |
| 1777668843 | 15° C | 47% | 1024.6 hPa | 0 mm | - | - | - |
| 1777668304 | 15.56° C | 46% | 1024.5 hPa | 0 mm | - | - | - |
| 1777667763 | 16.11° C | 44% | 1024.5 hPa | 0 mm | - | - | - |
| 1777667223 | 15.56° C | 45% | 1024.7 hPa | 0 mm | - | - | - |
| 1777666683 | 15.56° C | 45% | 1024.8 hPa | 0 mm | - | - | - |
| 1777666143 | 16.11° C | 44% | 1024.6 hPa | 0 mm | - | - | - |
| 1777665603 | 16.11° C | 43% | 1024.8 hPa | 0 mm | - | - | - |
| 1777665243 | 16.11° C | 44% | 1024.6 hPa | 0 mm | - | - | - |
| 1777664703 | 16.67° C | 42% | 1024.8 hPa | 0 mm | - | - | - |
| 1777664163 | 16.67° C | 42% | 1024.6 hPa | 0 mm | - | - | - |
| 1777663624 | 17.22° C | 41% | 1024.7 hPa | 0 mm | - | - | - |
| 1777663083 | 17.22° C | 41% | 1024.7 hPa | 0 mm | - | - | - |
| 1777662543 | 17.22° C | 42% | 1024.6 hPa | 0 mm | - | - | - |
| 1777662003 | 16.67° C | 43% | 1024.5 hPa | 0 mm | - | - | - |
| 1777661644 | 16.67° C | 43% | 1024.6 hPa | 0 mm | - | - | - |
| 1777661103 | 15.56° C | 50% | 1024.6 hPa | 0 mm | - | - | - |
| 1777660563 | 16.11° C | 46% | 1024.4 hPa | 0 mm | - | - | - |
| 1777660023 | 16.67° C | 46% | 1024.5 hPa | 0 mm | - | - | - |
| 1777659483 | 17.22° C | 42% | 1024.4 hPa | 0 mm | - | - | - |
| 1777658943 | 17.78° C | 41% | 1024.3 hPa | 0 mm | - | - | - |
| 1777658403 | 18.33° C | 39% | 1024.3 hPa | 0 mm | - | - | - |
| 1777658043 | 18.89° C | 40% | 1024.1 hPa | 0 mm | - | - | - |
| 1777657503 | 19.44° C | 37% | 1024.3 hPa | 0 mm | - | - | - |
* Rain latest hour (hover to see other rain measurements)
** Current wind speed in m/s (hover to see current wind gust speed)